createdAt,value
2018-06-22T00:01:17.300Z,45.10
2018-06-22T00:03:52.451Z,45.10
2018-06-22T00:06:27.618Z,45.20
2018-06-22T00:09:02.726Z,45.20
2018-06-22T00:11:38.157Z,45.30
2018-06-22T00:14:13.270Z,45.40
2018-06-22T00:16:48.356Z,45.20
2018-06-22T00:19:23.785Z,45.50
2018-06-22T00:21:59.015Z,45.40
2018-06-22T00:24:34.130Z,45.40
2018-06-22T00:27:09.287Z,45.60
2018-06-22T00:29:44.307Z,46.00
2018-06-22T00:32:19.522Z,46.10
2018-06-22T00:34:54.479Z,46.40
2018-06-22T00:37:29.550Z,46.60
2018-06-22T00:40:04.846Z,46.70
2018-06-22T00:42:40.263Z,47.00
2018-06-22T00:45:15.426Z,47.40
2018-06-22T00:47:50.800Z,47.70
2018-06-22T00:50:25.986Z,48.40
2018-06-22T00:53:01.059Z,49.10
2018-06-22T00:55:36.141Z,49.20
2018-06-22T00:58:11.479Z,49.60
2018-06-22T01:00:46.776Z,49.90
2018-06-22T01:03:21.914Z,50.10
2018-06-22T01:05:56.970Z,50.60
2018-06-22T01:08:32.054Z,50.50
2018-06-22T01:11:07.605Z,51.10
2018-06-22T01:13:42.775Z,51.30
2018-06-22T01:16:18.364Z,51.30
2018-06-22T01:18:53.543Z,51.60
2018-06-22T01:21:28.715Z,51.80
2018-06-22T01:24:03.879Z,51.80
2018-06-22T01:26:39.116Z,52.00
2018-06-22T01:29:19.939Z,52.20
2018-06-22T01:31:55.406Z,52.40
2018-06-22T01:34:30.507Z,52.60
2018-06-22T01:37:05.751Z,53.30
2018-06-22T01:39:40.974Z,52.70
2018-06-22T01:42:16.206Z,53.20
2018-06-22T01:44:51.324Z,53.40
2018-06-22T01:47:26.445Z,53.30
2018-06-22T01:50:01.534Z,53.60
2018-06-22T01:52:36.729Z,53.90
2018-06-22T01:55:11.891Z,53.30
2018-06-22T01:57:47.098Z,53.90
2018-06-22T02:00:22.195Z,53.90
2018-06-22T02:02:57.355Z,54.50
2018-06-22T02:05:32.621Z,54.30
2018-06-22T02:08:07.843Z,54.50
2018-06-22T02:10:43.090Z,54.40
2018-06-22T02:13:18.330Z,54.80
2018-06-22T02:15:53.558Z,55.10
2018-06-22T02:18:28.786Z,55.30
2018-06-22T02:21:04.131Z,55.50
2018-06-22T02:23:39.168Z,55.80
2018-06-22T02:26:14.146Z,55.90
2018-06-22T02:28:49.198Z,55.80
2018-06-22T02:31:24.414Z,55.90
2018-06-22T02:33:59.683Z,56.30
2018-06-22T02:36:34.859Z,56.80
2018-06-22T02:39:11.528Z,56.50
2018-06-22T02:41:46.683Z,56.50
2018-06-22T02:44:21.864Z,56.70
2018-06-22T02:46:56.948Z,57.00
2018-06-22T02:49:32.146Z,56.80
2018-06-22T02:52:07.415Z,56.90
2018-06-22T02:54:42.508Z,57.30
2018-06-22T02:57:17.743Z,57.40
2018-06-22T02:59:52.863Z,57.60
2018-06-22T03:02:27.958Z,57.80
2018-06-22T03:05:03.165Z,58.00
2018-06-22T03:07:38.481Z,58.10
2018-06-22T03:10:13.779Z,58.30
2018-06-22T03:12:49.027Z,58.50
2018-06-22T03:15:24.144Z,58.50
2018-06-22T03:17:59.218Z,58.40
2018-06-22T03:20:34.336Z,58.30
2018-06-22T03:23:09.566Z,58.40
2018-06-22T03:25:44.956Z,58.40
2018-06-22T03:28:20.146Z,58.40
2018-06-22T03:30:55.452Z,58.40
2018-06-22T03:33:30.744Z,58.90
2018-06-22T03:36:05.844Z,59.00
2018-06-22T03:38:41.207Z,58.90
2018-06-22T03:41:16.347Z,58.90
2018-06-22T03:43:51.567Z,59.10
2018-06-22T03:46:26.784Z,59.70
2018-06-22T03:49:01.770Z,59.50
2018-06-22T03:51:36.892Z,59.50
2018-06-22T03:54:11.938Z,59.90
2018-06-22T03:56:47.211Z,60.30
2018-06-22T03:59:22.514Z,60.50
2018-06-22T04:01:57.927Z,60.40
2018-06-22T04:04:33.029Z,59.90
2018-06-22T04:07:08.334Z,59.90
2018-06-22T04:09:43.651Z,59.90
2018-06-22T04:12:18.718Z,60.40
2018-06-22T04:14:53.842Z,60.30
2018-06-22T04:17:29.094Z,60.10
2018-06-22T04:20:04.360Z,59.80
2018-06-22T04:22:39.622Z,59.60
2018-06-22T04:25:14.951Z,59.80
2018-06-22T04:27:51.024Z,59.10
2018-06-22T04:30:26.277Z,59.30
2018-06-22T04:33:01.670Z,59.20
2018-06-22T04:35:36.887Z,59.20
2018-06-22T04:38:12.187Z,59.40
2018-06-22T04:40:47.383Z,59.30
2018-06-22T04:43:22.660Z,59.90
2018-06-22T04:45:57.863Z,60.00
2018-06-22T04:48:33.360Z,59.80
2018-06-22T04:51:08.520Z,59.50
2018-06-22T04:53:43.935Z,59.90
2018-06-22T04:56:19.269Z,59.90
2018-06-22T04:58:54.495Z,59.20
2018-06-22T05:01:30.162Z,59.70
2018-06-22T05:04:06.005Z,59.80
2018-06-22T05:06:41.232Z,60.40
2018-06-22T05:09:16.494Z,60.10
2018-06-22T05:11:51.679Z,60.00
2018-06-22T05:14:26.819Z,60.10
2018-06-22T05:17:01.923Z,59.90
2018-06-22T05:19:36.978Z,60.70
2018-06-22T05:22:12.268Z,59.80
2018-06-22T05:24:47.566Z,60.10
2018-06-22T05:27:22.820Z,59.90
2018-06-22T05:29:58.034Z,59.80
2018-06-22T05:32:33.427Z,59.20
2018-06-22T05:35:08.526Z,59.90
2018-06-22T05:37:43.700Z,59.40
2018-06-22T05:42:53.375Z,60.40
2018-06-22T05:45:28.648Z,60.20
2018-06-22T05:48:04.014Z,60.50
2018-06-22T05:50:39.203Z,60.20
2018-06-22T05:53:14.230Z,60.30
2018-06-22T05:55:49.686Z,60.20
2018-06-22T05:58:24.774Z,60.00
2018-06-22T06:01:00.050Z,60.50
2018-06-22T06:03:35.655Z,60.50
2018-06-22T06:06:10.957Z,60.00
2018-06-22T06:08:46.520Z,59.80
2018-06-22T06:11:21.494Z,59.30
2018-06-22T06:13:56.678Z,59.30
2018-06-22T06:16:31.695Z,59.10
2018-06-22T06:21:41.878Z,58.90
2018-06-22T06:24:17.095Z,58.90
2018-06-22T06:26:52.475Z,59.10
2018-06-22T06:29:27.796Z,59.10
2018-06-22T06:32:03.259Z,59.10
2018-06-22T06:34:38.581Z,59.60
2018-06-22T06:37:13.703Z,59.20
2018-06-22T06:39:49.444Z,59.00
2018-06-22T06:42:24.738Z,59.10
2018-06-22T06:45:00.060Z,59.40
2018-06-22T06:47:35.334Z,59.20
2018-06-22T06:50:10.640Z,58.20
2018-06-22T06:52:45.865Z,58.30
2018-06-22T06:55:22.054Z,58.20
2018-06-22T06:57:57.359Z,58.30
2018-06-22T07:00:32.563Z,57.50
2018-06-22T07:03:08.083Z,57.90
2018-06-22T07:05:43.533Z,57.80
2018-06-22T07:08:18.673Z,57.80
2018-06-22T07:10:53.701Z,56.40
2018-06-22T07:13:28.941Z,55.90
2018-06-22T07:16:04.152Z,56.20
2018-06-22T07:21:14.063Z,56.00
2018-06-22T07:23:49.298Z,56.80
2018-06-22T07:26:24.672Z,56.40
2018-06-22T07:28:59.736Z,56.60
2018-06-22T07:31:34.919Z,55.90
2018-06-22T07:34:10.172Z,55.40
2018-06-22T07:36:45.506Z,55.40
2018-06-22T07:39:20.792Z,55.80
2018-06-22T07:41:55.831Z,55.80
2018-06-22T07:44:31.308Z,55.10
2018-06-22T07:47:06.511Z,55.90
2018-06-22T07:49:41.619Z,55.30
2018-06-22T07:52:16.872Z,54.80
2018-06-22T07:54:52.061Z,55.00
2018-06-22T07:57:27.258Z,54.80
2018-06-22T08:00:02.597Z,53.90
2018-06-22T08:02:37.635Z,54.10
2018-06-22T08:05:12.737Z,53.80
2018-06-22T08:07:47.836Z,54.00
2018-06-22T08:12:57.574Z,53.40
2018-06-22T08:15:32.749Z,54.50
2018-06-22T08:18:07.940Z,53.70
2018-06-22T08:20:43.063Z,53.50
2018-06-22T08:23:18.103Z,53.80
2018-06-22T08:25:53.296Z,53.30
2018-06-22T08:28:28.443Z,54.60
2018-06-22T08:31:03.704Z,54.70
2018-06-22T08:33:38.882Z,52.10
2018-06-22T08:36:14.139Z,52.10
2018-06-22T08:38:49.238Z,52.60
2018-06-22T08:41:24.453Z,52.80
2018-06-22T08:43:59.450Z,51.60
2018-06-22T08:46:34.629Z,52.00
2018-06-22T08:49:09.746Z,52.50
2018-06-22T08:51:44.983Z,52.00
2018-06-22T08:56:55.443Z,50.00
2018-06-22T08:59:30.700Z,50.80
2018-06-22T09:02:05.831Z,50.30
2018-06-22T09:04:41.003Z,49.80
2018-06-22T09:07:16.986Z,50.60
2018-06-22T09:09:52.230Z,50.00
2018-06-22T09:12:27.611Z,49.80
2018-06-22T09:15:02.836Z,49.50
2018-06-22T09:17:37.919Z,49.30
2018-06-22T09:20:13.019Z,49.70
2018-06-22T09:22:49.066Z,46.80
2018-06-22T09:25:24.439Z,47.30
2018-06-22T09:27:59.593Z,48.30
2018-06-22T09:30:34.901Z,47.90
2018-06-22T09:33:10.166Z,48.60
2018-06-22T09:35:45.432Z,48.20
2018-06-22T09:38:20.633Z,48.40
2018-06-22T09:40:55.953Z,47.30
2018-06-22T09:43:31.129Z,47.90
2018-06-22T09:46:06.327Z,48.00
2018-06-22T09:48:41.431Z,49.00
2018-06-22T09:51:16.804Z,46.00
2018-06-22T09:53:51.975Z,46.50
2018-06-22T09:56:27.114Z,46.50
2018-06-22T09:59:02.177Z,47.60
2018-06-22T10:01:37.409Z,45.00
2018-06-22T10:04:12.883Z,43.90
2018-06-22T10:06:48.864Z,45.00
2018-06-22T10:09:23.912Z,46.10
2018-06-22T10:11:59.125Z,44.50
2018-06-22T10:14:34.407Z,45.10
2018-06-22T10:17:09.464Z,44.80
2018-06-22T10:19:44.756Z,44.10
2018-06-22T10:22:19.815Z,45.40
2018-06-22T10:24:55.134Z,42.70
2018-06-22T10:27:30.299Z,43.60
2018-06-22T10:30:05.347Z,43.80
2018-06-22T10:32:40.482Z,42.90
2018-06-22T10:35:15.499Z,42.60
2018-06-22T10:37:50.819Z,42.60
2018-06-22T10:40:26.008Z,43.70
2018-06-22T10:43:01.128Z,44.30
2018-06-22T10:45:36.324Z,42.90
2018-06-22T10:48:11.384Z,42.30
2018-06-22T10:50:46.587Z,43.40
2018-06-22T10:53:21.847Z,41.70
2018-06-22T10:55:57.111Z,43.00
2018-06-22T10:58:32.326Z,43.50
2018-06-22T11:01:07.515Z,43.70
2018-06-22T11:03:42.748Z,43.80
2018-06-22T11:06:18.392Z,43.50
2018-06-22T11:08:53.643Z,44.30
2018-06-22T11:11:28.805Z,45.00
2018-06-22T11:14:04.169Z,44.40
2018-06-22T11:16:39.265Z,43.60
2018-06-22T11:19:14.523Z,43.60
2018-06-22T11:21:49.702Z,43.70
2018-06-22T11:24:25.505Z,43.60
2018-06-22T11:27:00.743Z,44.70
2018-06-22T11:29:35.872Z,45.60
2018-06-22T11:32:11.134Z,45.70
2018-06-22T11:34:46.274Z,44.10
2018-06-22T11:37:21.451Z,43.60
2018-06-22T11:39:56.585Z,42.90
2018-06-22T11:42:31.884Z,43.20
2018-06-22T11:45:07.064Z,43.90
2018-06-22T11:47:42.337Z,43.70
2018-06-22T11:50:17.597Z,42.20
2018-06-22T11:52:52.872Z,43.40
2018-06-22T11:55:28.266Z,44.60
2018-06-22T11:58:03.436Z,45.00
2018-06-22T12:00:38.758Z,44.30
2018-06-22T12:03:13.812Z,43.20
2018-06-22T12:05:49.038Z,43.80
2018-06-22T12:08:24.274Z,44.30
2018-06-22T12:10:59.572Z,44.40
2018-06-22T12:13:34.858Z,45.20
2018-06-22T12:16:10.578Z,44.10
2018-06-22T12:18:45.921Z,44.90
2018-06-22T12:21:21.102Z,44.40
2018-06-22T12:23:56.431Z,44.10
2018-06-22T12:26:31.584Z,43.60
2018-06-22T12:29:06.875Z,43.90
2018-06-22T12:31:42.307Z,43.60
2018-06-22T12:34:17.477Z,43.60
2018-06-22T12:36:52.832Z,44.30
2018-06-22T12:39:28.196Z,45.00
2018-06-22T12:42:03.351Z,44.70
2018-06-22T12:44:38.578Z,44.70
2018-06-22T12:47:13.926Z,44.50
2018-06-22T12:49:49.106Z,45.00
2018-06-22T12:52:24.376Z,44.80
2018-06-22T12:54:59.704Z,45.80
2018-06-22T12:57:34.925Z,46.00
2018-06-22T13:00:10.061Z,45.50
2018-06-22T13:02:45.508Z,44.90
2018-06-22T13:05:20.635Z,45.20
2018-06-22T13:07:55.843Z,46.10
2018-06-22T13:10:31.038Z,45.20
2018-06-22T13:13:06.215Z,45.70
2018-06-22T13:15:41.542Z,45.80
2018-06-22T13:18:16.730Z,47.00
2018-06-22T13:20:52.034Z,47.10
2018-06-22T13:23:27.132Z,47.20
2018-06-22T13:26:02.262Z,47.40
2018-06-22T13:28:37.579Z,47.40
2018-06-22T13:31:12.878Z,47.70
2018-06-22T13:33:48.117Z,47.50
2018-06-22T13:36:23.338Z,46.70
2018-06-22T13:38:58.365Z,47.00
2018-06-22T13:41:33.557Z,47.20
2018-06-22T13:44:09.290Z,46.40
2018-06-22T13:46:44.924Z,46.90
2018-06-22T13:49:20.409Z,46.70
2018-06-22T13:51:55.736Z,46.20
2018-06-22T13:54:31.182Z,46.10
2018-06-22T13:57:06.582Z,45.00
2018-06-22T13:59:41.752Z,45.50
2018-06-22T14:02:16.920Z,46.20
2018-06-22T14:04:57.487Z,45.20
2018-06-22T14:07:32.590Z,46.50
2018-06-22T14:10:07.932Z,46.30
2018-06-22T14:12:43.089Z,45.80
2018-06-22T14:15:18.259Z,46.10
2018-06-22T14:17:53.564Z,46.30
2018-06-22T14:20:28.662Z,46.40
2018-06-22T14:23:03.928Z,46.10
2018-06-22T14:25:39.161Z,45.40
2018-06-22T14:28:14.357Z,44.70
2018-06-22T14:30:49.625Z,44.30
2018-06-22T14:33:24.739Z,43.80
2018-06-22T14:35:59.893Z,43.40
2018-06-22T14:38:35.179Z,43.10
2018-06-22T14:41:10.303Z,42.60
2018-06-22T14:43:45.545Z,42.00
2018-06-22T14:46:20.979Z,41.80
2018-06-22T14:48:56.400Z,43.00
2018-06-22T14:51:31.362Z,42.20
2018-06-22T14:54:11.720Z,41.80
2018-06-22T14:56:52.023Z,41.60
2018-06-22T14:59:32.897Z,41.50
2018-06-22T15:02:13.512Z,41.00
2018-06-22T15:04:53.977Z,42.60
2018-06-22T15:07:34.581Z,39.70
2018-06-22T15:10:09.896Z,37.50
2018-06-22T15:12:45.002Z,37.60
2018-06-22T15:17:55.125Z,33.30
2018-06-22T15:20:30.305Z,32.10
2018-06-22T15:23:05.533Z,32.80
2018-06-22T15:25:40.545Z,32.60
2018-06-22T15:28:15.960Z,31.30
2018-06-22T15:30:51.363Z,29.40
2018-06-22T15:33:31.853Z,28.80
2018-06-22T15:36:12.513Z,27.50
2018-06-22T15:38:53.371Z,27.30
2018-06-22T15:41:34.124Z,29.20
2018-06-22T15:44:14.823Z,30.20
2018-06-22T15:46:55.274Z,29.40
2018-06-22T15:49:35.689Z,28.00
2018-06-22T15:52:16.338Z,28.20
2018-06-22T15:54:56.721Z,27.80
2018-06-22T16:00:09.778Z,28.50
2018-06-22T16:02:50.145Z,29.90
2018-06-22T16:05:25.367Z,30.30
2018-06-22T16:08:00.641Z,31.40
2018-06-22T16:10:35.846Z,30.00
2018-06-22T16:13:16.324Z,30.90
2018-06-22T16:15:56.988Z,31.70
2018-06-22T16:18:37.391Z,31.50
2018-06-22T16:21:18.821Z,31.70
2018-06-22T16:23:59.424Z,32.80
2018-06-22T16:26:40.225Z,33.40
2018-06-22T16:29:15.541Z,34.60
2018-06-22T16:31:50.871Z,36.00
2018-06-22T16:34:26.075Z,37.10
2018-06-22T16:37:01.347Z,38.70
2018-06-22T16:42:11.853Z,40.40
2018-06-22T16:44:47.266Z,40.70
2018-06-22T16:47:22.596Z,39.60
2018-06-22T16:49:58.036Z,37.60
2018-06-22T16:52:33.323Z,37.60
2018-06-22T16:57:43.565Z,38.90
2018-06-22T17:00:18.979Z,38.60
2018-06-22T17:02:54.233Z,38.20
2018-06-22T17:05:29.460Z,39.10
2018-06-22T17:08:10.019Z,39.80
2018-06-22T17:10:50.498Z,40.30
2018-06-22T17:16:11.726Z,40.10
2018-06-22T17:18:50.188Z,38.40
2018-06-22T17:21:25.446Z,38.60
2018-06-22T17:24:00.575Z,39.50
2018-06-22T17:26:35.570Z,40.20
2018-06-22T17:29:10.892Z,41.00
2018-06-22T17:31:46.116Z,41.70
2018-06-22T17:34:21.273Z,41.30
2018-06-22T17:36:56.488Z,39.40
2018-06-22T17:39:31.628Z,39.70
2018-06-22T17:42:06.943Z,40.20
2018-06-22T17:44:42.117Z,40.70
2018-06-22T17:47:17.297Z,41.60
2018-06-22T17:49:52.832Z,41.80
2018-06-22T17:52:28.211Z,42.10
2018-06-22T17:55:03.654Z,42.10
2018-06-22T17:57:38.807Z,42.40
2018-06-22T18:00:19.401Z,42.40
2018-06-22T18:03:00.673Z,42.80
2018-06-22T18:05:41.153Z,43.10
2018-06-22T18:08:21.664Z,43.80
2018-06-22T18:11:02.049Z,43.80
2018-06-22T18:13:37.560Z,43.70
2018-06-22T18:16:12.706Z,43.60
2018-06-22T18:18:47.990Z,43.70
2018-06-22T18:21:23.244Z,43.80
2018-06-22T18:23:58.445Z,43.80
2018-06-22T18:26:33.601Z,44.50
2018-06-22T18:29:09.213Z,44.30
2018-06-22T18:31:44.678Z,44.40
2018-06-22T18:34:19.790Z,45.20
2018-06-22T18:36:55.162Z,44.40
2018-06-22T18:39:30.406Z,44.60
2018-06-22T18:42:05.853Z,44.70
2018-06-22T18:44:41.240Z,45.10
2018-06-22T18:47:16.341Z,45.10
2018-06-22T18:49:51.556Z,45.60
2018-06-22T18:52:32.104Z,46.00
2018-06-22T18:55:13.071Z,46.20
2018-06-22T18:57:53.924Z,46.50
2018-06-22T19:00:34.636Z,47.10
2018-06-22T19:03:15.411Z,47.80
2018-06-22T19:05:51.270Z,48.10
2018-06-22T19:08:26.577Z,48.60
2018-06-22T19:11:01.977Z,49.00
2018-06-22T19:16:12.004Z,49.10
2018-06-22T19:18:47.362Z,49.30
2018-06-22T19:21:22.552Z,49.80
2018-06-22T19:23:57.834Z,50.30
2018-06-22T19:26:33.556Z,51.10
2018-06-22T19:29:08.731Z,51.60
2018-06-22T19:31:43.984Z,52.10
2018-06-22T19:34:23.952Z,52.20
2018-06-22T19:36:59.242Z,52.50
2018-06-22T19:39:34.573Z,52.80
2018-06-22T19:42:09.877Z,53.10
2018-06-22T19:44:51.731Z,52.70
2018-06-22T19:47:32.393Z,52.60
2018-06-22T19:50:12.975Z,52.70
2018-06-22T19:52:53.414Z,52.90
2018-06-22T19:55:28.819Z,53.00
2018-06-22T19:58:04.196Z,52.70
2018-06-22T20:00:39.779Z,52.70
2018-06-22T20:03:15.461Z,52.50
2018-06-22T20:05:50.932Z,52.80
2018-06-22T20:08:26.197Z,52.70
2018-06-22T20:11:01.588Z,53.00
2018-06-22T20:13:36.887Z,53.40
2018-06-22T20:16:12.323Z,53.60
2018-06-22T20:18:47.656Z,54.30
2018-06-22T20:21:23.198Z,54.70
2018-06-22T20:23:58.381Z,55.10
2018-06-22T20:26:33.820Z,55.80
2018-06-22T20:29:09.171Z,56.20
2018-06-22T20:31:44.495Z,56.60
2018-06-22T20:34:25.213Z,57.10
2018-06-22T20:37:14.707Z,57.40
2018-06-22T20:39:55.375Z,57.40
2018-06-22T20:42:36.090Z,57.90
2018-06-22T20:45:16.740Z,57.60
2018-06-22T20:47:57.348Z,58.00
2018-06-22T20:50:35.620Z,58.10
2018-06-22T20:55:45.721Z,58.50
2018-06-22T20:58:21.409Z,58.60
2018-06-22T21:00:56.639Z,59.00
2018-06-22T21:03:31.999Z,59.30
2018-06-22T21:06:07.395Z,59.40
2018-06-22T21:08:42.718Z,59.90
2018-06-22T21:11:18.000Z,60.20
2018-06-22T21:13:53.347Z,60.40
2018-06-22T21:16:28.804Z,61.00
2018-06-22T21:19:04.111Z,61.60
2018-06-22T21:21:44.799Z,61.80
2018-06-22T21:24:20.160Z,61.70
2018-06-22T21:26:59.524Z,61.70
2018-06-22T21:29:40.066Z,61.60
2018-06-22T21:32:20.442Z,61.60
2018-06-22T21:35:00.744Z,61.60
2018-06-22T21:37:41.507Z,61.90
2018-06-22T21:40:16.643Z,62.20
2018-06-22T21:42:51.956Z,62.80
2018-06-22T21:45:27.264Z,63.90
2018-06-22T21:48:02.376Z,64.70
2018-06-22T21:50:37.535Z,65.50
2018-06-22T21:53:12.735Z,66.20
2018-06-22T21:55:47.842Z,66.50
2018-06-22T21:58:23.051Z,67.50
2018-06-22T22:00:58.406Z,67.30
2018-06-22T22:03:33.375Z,67.20
2018-06-22T22:06:08.803Z,67.30
2018-06-22T22:08:43.879Z,67.20
2018-06-22T22:11:19.185Z,67.40
2018-06-22T22:13:54.516Z,67.30
2018-06-22T22:16:29.780Z,67.60
2018-06-22T22:19:05.052Z,67.80
2018-06-22T22:21:40.171Z,68.40
2018-06-22T22:24:15.456Z,68.40
2018-06-22T22:26:50.856Z,68.60
2018-06-22T22:29:27.499Z,68.50
2018-06-22T22:32:02.812Z,69.00
2018-06-22T22:34:37.985Z,69.60
2018-06-22T22:37:13.376Z,70.00
2018-06-22T22:39:48.554Z,70.00
2018-06-22T22:42:23.902Z,70.50
2018-06-22T22:44:59.207Z,70.60
2018-06-22T22:47:34.446Z,71.00
2018-06-22T22:50:09.689Z,71.20
2018-06-22T22:52:44.840Z,71.40
2018-06-22T22:55:20.231Z,71.80
2018-06-22T22:57:55.697Z,72.30
2018-06-22T23:00:30.939Z,73.80
2018-06-22T23:03:06.238Z,74.00
2018-06-22T23:05:41.344Z,73.30
2018-06-22T23:08:16.577Z,73.30
2018-06-22T23:13:26.489Z,73.00
2018-06-22T23:16:01.743Z,73.40
2018-06-22T23:21:11.959Z,73.70
2018-06-22T23:23:47.359Z,73.80
2018-06-22T23:26:22.572Z,74.30
2018-06-22T23:28:57.809Z,75.00
2018-06-22T23:31:33.037Z,75.20
2018-06-22T23:34:08.484Z,75.40
2018-06-22T23:36:43.579Z,76.90
2018-06-22T23:39:18.934Z,77.70
2018-06-22T23:41:54.062Z,78.40
2018-06-22T23:44:29.143Z,78.80
2018-06-22T23:49:39.131Z,80.10
2018-06-22T23:52:14.168Z,80.70
2018-06-22T23:54:49.434Z,81.30
2018-06-22T23:57:24.643Z,81.80
2018-06-22T23:59:59.803Z,82.20
